createdAt,value
2017-12-25T00:00:46.477Z,21.62
2017-12-25T00:01:46.479Z,21.67
2017-12-25T00:02:46.481Z,21.64
2017-12-25T00:03:46.482Z,21.67
2017-12-25T00:04:46.488Z,21.62
2017-12-25T00:05:46.489Z,21.67
2017-12-25T00:06:46.490Z,21.56
2017-12-25T00:07:46.492Z,21.62
2017-12-25T00:08:46.493Z,21.64
2017-12-25T00:09:46.494Z,21.56
2017-12-25T00:10:46.497Z,21.61
2017-12-25T00:11:46.496Z,21.67
2017-12-25T00:12:46.500Z,21.67
2017-12-25T00:13:46.501Z,21.64
2017-12-25T00:14:46.503Z,21.61
2017-12-25T00:15:46.504Z,21.67
2017-12-25T00:16:46.506Z,21.61
2017-12-25T00:17:46.509Z,21.64
2017-12-25T00:18:46.511Z,21.67
2017-12-25T00:19:46.512Z,21.53
2017-12-25T00:20:46.514Z,21.56
2017-12-25T00:21:46.516Z,21.61
2017-12-25T00:22:46.518Z,21.50
2017-12-25T00:23:46.542Z,21.54
2017-12-25T00:24:46.521Z,21.65
2017-12-25T00:25:46.524Z,21.54
2017-12-25T00:26:46.525Z,21.53
2017-12-25T00:27:46.526Z,21.53
2017-12-25T00:28:46.527Z,21.52
2017-12-25T00:29:46.531Z,21.59
2017-12-25T00:30:46.533Z,21.53
2017-12-25T00:31:46.535Z,21.54
2017-12-25T00:32:46.593Z,21.59
2017-12-25T00:33:46.545Z,21.53
2017-12-25T00:34:46.543Z,21.58
2017-12-25T00:35:46.541Z,21.58
2017-12-25T00:36:46.544Z,21.53
2017-12-25T00:37:46.545Z,21.58
2017-12-25T00:38:46.547Z,21.59
2017-12-25T00:39:46.548Z,21.52
2017-12-25T00:40:46.551Z,21.53
2017-12-25T00:41:46.553Z,21.56
2017-12-25T00:42:46.558Z,21.59
2017-12-25T00:43:46.558Z,21.54
2017-12-25T00:44:46.558Z,21.59
2017-12-25T00:45:46.561Z,21.50
2017-12-25T00:46:46.561Z,21.53
2017-12-25T00:47:46.563Z,21.53
2017-12-25T00:48:46.566Z,21.54
2017-12-25T00:49:46.567Z,21.56
2017-12-25T00:50:46.571Z,21.54
2017-12-25T00:51:46.569Z,21.56
2017-12-25T00:52:46.571Z,21.58
2017-12-25T00:53:46.576Z,21.52
2017-12-25T00:54:46.576Z,21.53
2017-12-25T00:55:46.580Z,21.50
2017-12-25T00:56:46.579Z,21.56
2017-12-25T00:57:46.582Z,21.53
2017-12-25T00:58:46.588Z,21.53
2017-12-25T00:59:46.590Z,21.52
2017-12-25T01:00:46.591Z,21.53
2017-12-25T01:01:46.592Z,21.49
2017-12-25T01:02:46.593Z,21.50
2017-12-25T01:03:46.595Z,21.50
2017-12-25T01:04:46.595Z,21.53
2017-12-25T01:05:46.596Z,21.56
2017-12-25T01:06:46.598Z,21.49
2017-12-25T01:07:46.599Z,21.53
2017-12-25T01:08:46.601Z,21.49
2017-12-25T01:09:46.603Z,21.56
2017-12-25T01:10:46.607Z,21.47
2017-12-25T01:11:46.607Z,21.44
2017-12-25T01:12:46.608Z,21.56
2017-12-25T01:13:46.611Z,21.47
2017-12-25T01:14:46.613Z,21.53
2017-12-25T01:15:46.614Z,21.49
2017-12-25T01:16:46.615Z,21.47
2017-12-25T01:17:46.618Z,21.50
2017-12-25T01:18:46.620Z,21.50
2017-12-25T01:19:46.620Z,21.46
2017-12-25T01:20:46.623Z,21.46
2017-12-25T01:21:46.624Z,21.44
2017-12-25T01:22:46.626Z,21.49
2017-12-25T01:23:46.627Z,21.44
2017-12-25T01:24:46.629Z,21.47
2017-12-25T01:25:46.631Z,21.47
2017-12-25T01:26:46.639Z,21.44
2017-12-25T01:27:46.634Z,21.52
2017-12-25T01:28:46.636Z,21.49
2017-12-25T01:29:46.646Z,21.38
2017-12-25T01:30:46.640Z,21.46
2017-12-25T01:31:46.641Z,21.47
2017-12-25T01:32:46.643Z,21.47
2017-12-25T01:33:46.649Z,21.44
2017-12-25T01:34:46.647Z,21.44
2017-12-25T01:35:46.649Z,21.47
2017-12-25T01:36:46.650Z,21.47
2017-12-25T01:37:46.652Z,21.47
2017-12-25T01:38:46.654Z,21.38
2017-12-25T01:39:46.655Z,21.46
2017-12-25T01:40:46.657Z,21.50
2017-12-25T01:41:46.659Z,21.44
2017-12-25T01:42:46.661Z,21.47
2017-12-25T01:43:46.663Z,21.44
2017-12-25T01:44:46.664Z,21.47
2017-12-25T01:45:46.666Z,21.44
2017-12-25T01:46:46.668Z,21.46
2017-12-25T01:47:46.670Z,21.44
2017-12-25T01:48:46.671Z,21.44
2017-12-25T01:49:46.673Z,21.40
2017-12-25T01:50:46.675Z,21.43
2017-12-25T01:51:46.676Z,21.40
2017-12-25T01:52:46.678Z,21.44
2017-12-25T01:53:46.680Z,21.43
2017-12-25T01:54:46.681Z,21.38
2017-12-25T01:55:46.683Z,21.46
2017-12-25T01:56:46.685Z,21.37
2017-12-25T01:57:46.688Z,21.44
2017-12-25T01:58:46.690Z,21.50
2017-12-25T01:59:46.690Z,21.42
2017-12-25T02:00:46.696Z,21.44
2017-12-25T02:01:46.694Z,21.42
2017-12-25T02:02:46.701Z,21.38
2017-12-25T02:03:46.697Z,21.44
2017-12-25T02:04:46.699Z,21.42
2017-12-25T02:05:46.701Z,21.46
2017-12-25T02:06:46.704Z,21.44
2017-12-25T02:07:46.712Z,21.42
2017-12-25T02:08:46.706Z,21.42
2017-12-25T02:09:46.707Z,21.43
2017-12-25T02:10:46.712Z,21.47
2017-12-25T02:11:46.711Z,21.44
2017-12-25T02:12:46.715Z,21.43
2017-12-25T02:13:46.715Z,21.35
2017-12-25T02:14:46.718Z,21.44
2017-12-25T02:15:46.719Z,21.46
2017-12-25T02:16:46.720Z,21.43
2017-12-25T02:17:46.722Z,21.42
2017-12-25T02:18:46.725Z,21.47
2017-12-25T02:19:46.726Z,21.42
2017-12-25T02:20:46.727Z,21.42
2017-12-25T02:21:46.729Z,21.47
2017-12-25T02:22:46.730Z,21.43
2017-12-25T02:23:46.732Z,21.42
2017-12-25T02:24:46.732Z,21.46
2017-12-25T02:25:46.735Z,21.49
2017-12-25T02:26:46.738Z,21.46
2017-12-25T02:27:46.738Z,21.34
2017-12-25T02:28:46.743Z,21.43
2017-12-25T02:29:46.748Z,21.34
2017-12-25T02:30:46.746Z,21.44
2017-12-25T02:31:46.748Z,21.47
2017-12-25T02:32:46.748Z,21.31
2017-12-25T02:33:46.750Z,21.44
2017-12-25T02:34:46.752Z,21.31
2017-12-25T02:35:46.753Z,21.43
2017-12-25T02:36:46.755Z,21.35
2017-12-25T02:37:46.757Z,21.44
2017-12-25T02:38:46.762Z,21.38
2017-12-25T02:39:46.760Z,21.37
2017-12-25T02:40:46.762Z,21.38
2017-12-25T02:41:46.764Z,21.40
2017-12-25T02:42:46.767Z,21.40
2017-12-25T02:43:46.767Z,21.37
2017-12-25T02:44:46.770Z,21.43
2017-12-25T02:45:46.770Z,21.43
2017-12-25T02:46:46.777Z,21.31
2017-12-25T02:47:46.774Z,21.46
2017-12-25T02:48:46.775Z,21.43
2017-12-25T02:49:46.777Z,21.35
2017-12-25T02:50:46.780Z,21.47
2017-12-25T02:51:46.780Z,21.34
2017-12-25T02:52:46.783Z,21.49
2017-12-25T02:53:46.786Z,21.44
2017-12-25T02:54:46.786Z,21.35
2017-12-25T02:55:46.789Z,21.46
2017-12-25T02:56:46.790Z,21.35
2017-12-25T02:57:46.792Z,21.37
2017-12-25T02:58:46.793Z,21.31
2017-12-25T02:59:46.796Z,21.32
2017-12-25T03:00:46.799Z,21.47
2017-12-25T03:01:46.798Z,21.35
2017-12-25T03:02:46.802Z,21.40
2017-12-25T03:03:46.802Z,21.47
2017-12-25T03:04:46.804Z,21.37
2017-12-25T03:05:46.805Z,21.34
2017-12-25T03:06:46.809Z,21.32
2017-12-25T03:07:46.809Z,21.43
2017-12-25T03:08:46.810Z,21.35
2017-12-25T03:09:46.819Z,21.32
2017-12-25T03:10:46.815Z,21.34
2017-12-25T03:11:46.815Z,21.32
2017-12-25T03:12:46.818Z,21.38
2017-12-25T03:13:46.821Z,21.35
2017-12-25T03:14:46.821Z,21.38
2017-12-25T03:15:46.822Z,21.31
2017-12-25T03:16:46.824Z,21.38
2017-12-25T03:17:46.827Z,21.38
2017-12-25T03:18:46.829Z,21.35
2017-12-25T03:19:46.829Z,21.37
2017-12-25T03:20:46.831Z,21.40
2017-12-25T03:21:46.832Z,21.37
2017-12-25T03:22:46.835Z,21.32
2017-12-25T03:23:46.836Z,21.32
2017-12-25T03:24:46.836Z,21.35
2017-12-25T03:25:46.839Z,21.32
2017-12-25T03:26:46.841Z,21.37
2017-12-25T03:27:46.843Z,21.32
2017-12-25T03:28:46.843Z,21.34
2017-12-25T03:29:46.846Z,21.38
2017-12-25T03:30:46.852Z,21.38
2017-12-25T03:31:46.852Z,21.37
2017-12-25T03:32:46.851Z,21.42
2017-12-25T03:33:46.855Z,21.40
2017-12-25T03:34:46.856Z,21.38
2017-12-25T03:35:46.856Z,21.40
2017-12-25T03:36:46.859Z,21.38
2017-12-25T03:37:46.859Z,21.38
2017-12-25T03:38:46.862Z,21.38
2017-12-25T03:39:46.863Z,21.43
2017-12-25T03:40:46.865Z,21.42
2017-12-25T03:41:46.866Z,21.40
2017-12-25T03:42:46.869Z,21.46
2017-12-25T03:43:46.869Z,21.40
2017-12-25T03:44:46.870Z,21.35
2017-12-25T03:45:46.874Z,21.35
2017-12-25T03:46:46.875Z,21.35
2017-12-25T03:47:46.876Z,21.38
2017-12-25T03:48:46.878Z,21.40
2017-12-25T03:49:46.879Z,21.43
2017-12-25T03:50:46.881Z,21.40
2017-12-25T03:51:46.882Z,21.43
2017-12-25T03:52:46.904Z,21.35
2017-12-25T03:53:46.886Z,21.35
2017-12-25T03:54:46.888Z,21.37
2017-12-25T03:55:46.888Z,21.31
2017-12-25T03:56:46.893Z,21.40
2017-12-25T03:57:46.893Z,21.34
2017-12-25T03:58:46.895Z,21.37
2017-12-25T03:59:46.895Z,21.38
2017-12-25T04:00:46.900Z,21.44
2017-12-25T04:01:46.900Z,21.37
2017-12-25T04:02:46.901Z,21.40
2017-12-25T04:03:46.903Z,21.38
2017-12-25T04:04:46.904Z,21.28
2017-12-25T04:05:46.914Z,21.40
2017-12-25T04:06:46.911Z,21.34
2017-12-25T04:07:46.912Z,21.37
2017-12-25T04:08:46.913Z,21.29
2017-12-25T04:09:46.914Z,21.38
2017-12-25T04:10:46.916Z,21.35
2017-12-25T04:11:46.917Z,21.42
2017-12-25T04:12:46.918Z,21.37
2017-12-25T04:13:46.920Z,21.40
2017-12-25T04:14:46.922Z,21.42
2017-12-25T04:15:46.926Z,21.35
2017-12-25T04:16:46.925Z,21.32
2017-12-25T04:17:46.927Z,21.37
2017-12-25T04:18:46.930Z,21.35
2017-12-25T04:19:46.932Z,21.38
2017-12-25T04:20:46.934Z,21.43
2017-12-25T04:21:46.935Z,21.46
2017-12-25T04:22:46.937Z,21.34
2017-12-25T04:23:46.939Z,21.35
2017-12-25T04:24:46.940Z,21.42
2017-12-25T04:25:46.942Z,21.44
2017-12-25T04:26:46.944Z,21.42
2017-12-25T04:27:46.946Z,21.43
2017-12-25T04:28:46.953Z,21.44
2017-12-25T04:29:46.954Z,21.44
2017-12-25T04:30:46.956Z,21.42
2017-12-25T04:31:46.953Z,21.46
2017-12-25T04:32:46.956Z,21.49
2017-12-25T04:33:46.957Z,21.42
2017-12-25T04:34:46.959Z,21.46
2017-12-25T04:35:46.960Z,21.43
2017-12-25T04:36:46.962Z,21.52
2017-12-25T04:37:46.980Z,21.35
2017-12-25T04:38:46.976Z,21.49
2017-12-25T04:39:46.977Z,21.52
2017-12-25T04:40:46.979Z,21.35
2017-12-25T04:41:46.980Z,21.43
2017-12-25T04:42:46.982Z,21.46
2017-12-25T04:43:46.983Z,21.43
2017-12-25T04:44:46.979Z,21.54
2017-12-25T04:45:46.982Z,21.46
2017-12-25T04:46:47.024Z,21.46
2017-12-25T04:47:46.983Z,21.43
2017-12-25T04:48:46.986Z,21.49
2017-12-25T04:49:46.988Z,21.52
2017-12-25T04:50:46.991Z,21.50
2017-12-25T04:51:46.991Z,21.49
2017-12-25T04:52:46.994Z,21.46
2017-12-25T04:53:46.996Z,21.50
2017-12-25T04:54:47.001Z,21.44
2017-12-25T04:55:47.004Z,21.52
2017-12-25T04:56:47.004Z,21.56
2017-12-25T04:57:47.005Z,21.47
2017-12-25T04:58:47.006Z,21.59
2017-12-25T04:59:47.008Z,21.49
2017-12-25T05:00:47.010Z,21.58
2017-12-25T05:01:47.014Z,21.53
2017-12-25T05:02:47.016Z,21.53
2017-12-25T05:03:47.017Z,21.46
2017-12-25T05:04:47.019Z,21.43
2017-12-25T05:05:47.021Z,21.58
2017-12-25T05:06:47.024Z,21.69
2017-12-25T05:07:47.025Z,21.71
2017-12-25T05:08:47.030Z,21.59
2017-12-25T05:09:47.029Z,21.54
2017-12-25T05:10:47.032Z,21.50
2017-12-25T05:11:47.032Z,21.49
2017-12-25T05:12:47.041Z,21.52
2017-12-25T05:13:47.042Z,21.52
2017-12-25T05:14:47.042Z,21.44
2017-12-25T05:15:47.043Z,21.46
2017-12-25T05:16:47.044Z,21.53
2017-12-25T05:17:47.055Z,21.46
2017-12-25T05:18:47.044Z,21.42
2017-12-25T05:19:47.046Z,21.44
2017-12-25T05:20:47.047Z,21.42
2017-12-25T05:21:47.048Z,21.38
2017-12-25T05:22:47.050Z,21.42
2017-12-25T05:23:47.050Z,21.43
2017-12-25T05:24:47.054Z,21.42
2017-12-25T05:25:47.053Z,21.34
2017-12-25T05:26:47.054Z,21.37
2017-12-25T05:27:47.055Z,21.37
2017-12-25T05:28:47.060Z,21.46
2017-12-25T05:29:47.058Z,21.32
2017-12-25T05:30:47.061Z,21.38
2017-12-25T05:31:47.070Z,21.31
2017-12-25T05:32:47.073Z,21.35
2017-12-25T05:33:47.071Z,21.38
2017-12-25T05:34:47.074Z,21.32
2017-12-25T05:35:47.079Z,21.34
2017-12-25T05:36:47.075Z,21.35
2017-12-25T05:37:47.075Z,21.34
2017-12-25T05:38:47.073Z,21.32
2017-12-25T05:39:47.074Z,21.37
2017-12-25T05:40:47.075Z,21.37
2017-12-25T05:41:47.076Z,21.32
2017-12-25T05:42:47.078Z,21.42
2017-12-25T05:43:47.080Z,21.37
2017-12-25T05:44:47.086Z,21.43
2017-12-25T05:45:47.078Z,21.38
2017-12-25T05:46:47.080Z,21.43
2017-12-25T05:47:47.082Z,21.46
2017-12-25T05:48:47.083Z,21.35
2017-12-25T05:49:47.083Z,21.34
2017-12-25T05:50:47.085Z,21.43
2017-12-25T05:51:47.085Z,21.43
2017-12-25T05:52:47.087Z,21.44
2017-12-25T05:53:47.088Z,21.46
2017-12-25T05:54:47.090Z,21.52
2017-12-25T05:55:47.090Z,21.47
2017-12-25T05:56:47.092Z,21.47
2017-12-25T05:57:47.094Z,21.53
2017-12-25T05:58:47.095Z,21.47
2017-12-25T05:59:47.096Z,21.44
2017-12-25T06:00:47.097Z,21.47
2017-12-25T06:01:47.100Z,21.50
2017-12-25T06:02:47.101Z,21.47
2017-12-25T06:03:47.102Z,21.46
2017-12-25T06:04:47.103Z,21.50
2017-12-25T06:05:47.105Z,21.53
2017-12-25T06:06:47.107Z,21.56
2017-12-25T06:07:47.108Z,21.52
2017-12-25T06:08:47.110Z,21.56
2017-12-25T06:09:47.111Z,21.50
2017-12-25T06:10:47.114Z,21.44
2017-12-25T06:11:47.114Z,21.43
2017-12-25T06:12:47.115Z,21.52
2017-12-25T06:13:47.116Z,21.53
2017-12-25T06:14:47.118Z,21.54
2017-12-25T06:15:47.121Z,21.52
2017-12-25T06:16:47.123Z,21.52
2017-12-25T06:17:47.124Z,21.56
2017-12-25T06:18:47.126Z,21.61
2017-12-25T06:19:47.127Z,21.58
2017-12-25T06:20:47.130Z,21.56
2017-12-25T06:21:47.131Z,21.59
2017-12-25T06:22:47.133Z,21.69
2017-12-25T06:23:47.135Z,21.58
2017-12-25T06:24:47.139Z,21.67
2017-12-25T06:25:47.138Z,21.67
2017-12-25T06:26:47.140Z,21.59
2017-12-25T06:27:47.142Z,21.61
2017-12-25T06:28:47.143Z,21.69
2017-12-25T06:29:47.148Z,21.56
2017-12-25T06:30:47.147Z,21.65
2017-12-25T06:31:47.148Z,21.64
2017-12-25T06:32:47.152Z,21.61
2017-12-25T06:33:47.171Z,21.59
2017-12-25T06:34:47.155Z,21.61
2017-12-25T06:35:47.156Z,21.64
2017-12-25T06:36:47.158Z,21.69
2017-12-25T06:37:47.160Z,21.68
2017-12-25T06:38:47.181Z,21.67
2017-12-25T06:39:47.174Z,21.65
2017-12-25T06:40:47.174Z,21.65
2017-12-25T06:41:47.175Z,21.65
2017-12-25T06:42:47.176Z,21.72
2017-12-25T06:43:47.178Z,21.68
2017-12-25T06:44:47.175Z,21.67
2017-12-25T06:45:47.175Z,21.62
2017-12-25T06:46:47.180Z,21.68
2017-12-25T06:47:47.186Z,21.79
2017-12-25T06:48:47.182Z,21.79
2017-12-25T06:49:47.185Z,21.79
2017-12-25T06:50:47.186Z,21.64
2017-12-25T06:51:47.188Z,21.74
2017-12-25T06:52:47.193Z,21.77
2017-12-25T06:53:47.192Z,21.72
2017-12-25T06:54:47.199Z,21.68
2017-12-25T06:55:47.197Z,21.75
2017-12-25T06:56:47.199Z,21.74
2017-12-25T06:57:47.200Z,21.75
2017-12-25T06:58:47.203Z,21.75
2017-12-25T06:59:47.205Z,21.68
2017-12-25T07:00:47.207Z,21.68
2017-12-25T07:01:47.219Z,21.80
2017-12-25T07:02:47.212Z,21.80
2017-12-25T07:03:47.213Z,21.79
2017-12-25T07:04:47.215Z,21.77
2017-12-25T07:05:47.218Z,21.80
2017-12-25T07:06:47.219Z,21.84
2017-12-25T07:07:47.221Z,21.71
2017-12-25T07:08:47.224Z,21.80
2017-12-25T07:09:47.233Z,21.77
2017-12-25T07:10:47.228Z,21.79
2017-12-25T07:11:47.230Z,21.79
2017-12-25T07:12:47.231Z,21.84
2017-12-25T07:13:47.235Z,21.80
2017-12-25T07:14:47.237Z,21.75
2017-12-25T07:15:47.238Z,21.88
2017-12-25T07:16:47.239Z,21.86
2017-12-25T07:17:47.242Z,21.84
2017-12-25T07:18:47.246Z,21.79
2017-12-25T07:19:47.257Z,21.80
2017-12-25T07:20:47.260Z,21.88
2017-12-25T07:21:47.259Z,21.80
2017-12-25T07:22:47.262Z,21.80
2017-12-25T07:23:47.263Z,21.82
2017-12-25T07:24:47.263Z,21.84
2017-12-25T07:25:47.261Z,21.88
2017-12-25T07:26:47.262Z,21.80
2017-12-25T07:27:47.263Z,21.91
2017-12-25T07:28:47.266Z,21.79
2017-12-25T07:29:47.268Z,21.86
2017-12-25T07:30:47.275Z,21.86
2017-12-25T07:31:47.271Z,21.91
2017-12-25T07:32:47.274Z,21.91
2017-12-25T07:33:47.276Z,21.88
2017-12-25T07:34:47.283Z,21.90
2017-12-25T07:35:47.279Z,21.82
2017-12-25T07:36:47.281Z,21.83
2017-12-25T07:37:47.283Z,21.86
2017-12-25T07:38:47.286Z,21.91
2017-12-25T07:39:47.287Z,21.90
2017-12-25T07:40:47.290Z,21.91
2017-12-25T07:41:47.292Z,21.83
2017-12-25T07:42:47.294Z,21.88
2017-12-25T07:43:47.296Z,21.88
2017-12-25T07:44:47.298Z,21.82
2017-12-25T07:45:47.302Z,21.91
2017-12-25T07:46:47.303Z,21.92
2017-12-25T07:47:47.307Z,21.92
2017-12-25T07:48:47.308Z,21.92
2017-12-25T07:49:47.310Z,21.82
2017-12-25T07:50:47.312Z,21.84
2017-12-25T07:51:47.313Z,21.91
2017-12-25T07:52:47.322Z,21.92
2017-12-25T07:53:47.319Z,21.84
2017-12-25T07:54:47.321Z,21.92
2017-12-25T07:55:47.322Z,21.91
2017-12-25T07:56:47.324Z,21.94
2017-12-25T07:57:47.334Z,21.86
2017-12-25T07:58:47.331Z,21.91
2017-12-25T07:59:47.331Z,21.92
2017-12-25T08:00:47.334Z,21.86
2017-12-25T08:01:47.337Z,21.84
2017-12-25T08:02:47.338Z,21.88
2017-12-25T08:03:47.338Z,21.90
2017-12-25T08:04:47.341Z,21.94
2017-12-25T08:05:47.344Z,21.92
2017-12-25T08:06:47.347Z,21.92
2017-12-25T08:07:47.348Z,21.90
2017-12-25T08:08:47.350Z,21.91
2017-12-25T08:09:47.354Z,21.86
2017-12-25T08:10:47.355Z,21.92
2017-12-25T08:11:47.356Z,21.83
2017-12-25T08:12:47.360Z,21.90
2017-12-25T08:13:47.363Z,21.91
2017-12-25T08:14:47.365Z,21.94
2017-12-25T08:15:47.366Z,21.94
2017-12-25T08:16:47.368Z,21.92
2017-12-25T08:17:47.380Z,21.98
2017-12-25T08:18:47.373Z,21.99
2017-12-25T08:19:47.375Z,21.92
2017-12-25T08:20:47.378Z,21.94
2017-12-25T08:21:47.380Z,21.88
2017-12-25T08:22:47.385Z,21.98
2017-12-25T08:23:47.385Z,21.92
2017-12-25T08:24:47.387Z,21.94
2017-12-25T08:25:47.390Z,21.91
2017-12-25T08:26:47.392Z,21.88
2017-12-25T08:27:47.393Z,21.83
2017-12-25T08:28:47.395Z,21.94
2017-12-25T08:29:47.398Z,21.91
2017-12-25T08:30:47.400Z,21.92
2017-12-25T08:31:47.402Z,21.94
2017-12-25T08:32:47.405Z,22.03
2017-12-25T08:33:47.416Z,21.98
2017-12-25T08:34:47.416Z,21.99
2017-12-25T08:35:47.417Z,21.91
2017-12-25T08:36:47.418Z,21.92
2017-12-25T08:37:47.426Z,21.98
2017-12-25T08:38:47.419Z,22.02
2017-12-25T08:39:47.422Z,21.88
2017-12-25T08:40:47.424Z,21.92
2017-12-25T08:41:47.425Z,21.96
2017-12-25T08:42:47.429Z,22.00
2017-12-25T08:43:47.430Z,22.05
2017-12-25T08:44:47.434Z,21.96
2017-12-25T08:45:47.436Z,21.91
2017-12-25T08:46:47.438Z,21.94
2017-12-25T08:47:47.443Z,21.96
2017-12-25T08:48:47.443Z,21.94
2017-12-25T08:49:47.444Z,21.88
2017-12-25T08:50:47.446Z,21.91
2017-12-25T08:51:47.448Z,21.91
2017-12-25T08:52:47.450Z,21.92
2017-12-25T08:53:47.456Z,21.92
2017-12-25T08:54:47.456Z,21.96
2017-12-25T08:55:47.458Z,21.99
2017-12-25T08:56:47.461Z,21.96
2017-12-25T08:57:47.462Z,21.90
2017-12-25T08:58:47.466Z,22.02
2017-12-25T08:59:47.467Z,21.98
2017-12-25T09:00:47.468Z,22.03
2017-12-25T09:01:47.480Z,22.02
2017-12-25T09:02:47.475Z,21.91
2017-12-25T09:03:47.474Z,22.05
2017-12-25T09:04:47.478Z,22.06
2017-12-25T09:05:47.480Z,21.91
2017-12-25T09:06:47.481Z,22.05
2017-12-25T09:07:47.484Z,22.00
2017-12-25T09:08:47.486Z,22.03
2017-12-25T09:09:47.493Z,22.03
2017-12-25T09:10:47.497Z,22.06
2017-12-25T09:11:47.493Z,22.09
2017-12-25T09:12:47.497Z,22.05
2017-12-25T09:13:47.498Z,21.98
2017-12-25T09:14:47.500Z,22.00
2017-12-25T09:15:47.508Z,22.00
2017-12-25T09:16:47.505Z,21.91
2017-12-25T09:17:47.507Z,21.96
2017-12-25T09:18:47.511Z,22.02
2017-12-25T09:19:47.511Z,22.03
2017-12-25T09:20:47.513Z,22.05
2017-12-25T09:21:47.519Z,22.06
2017-12-25T09:22:47.519Z,22.09
2017-12-25T09:23:47.521Z,22.03
2017-12-25T09:24:47.523Z,22.06
2017-12-25T09:25:47.534Z,22.07
2017-12-25T09:26:47.533Z,22.02
2017-12-25T09:27:47.540Z,22.00
2017-12-25T09:28:47.536Z,22.02
2017-12-25T09:29:47.541Z,22.07
2017-12-25T09:30:47.540Z,22.05
2017-12-25T09:31:47.541Z,22.02
2017-12-25T09:32:47.543Z,22.07
2017-12-25T09:33:47.553Z,22.09
2017-12-25T09:34:47.548Z,22.02
2017-12-25T09:35:47.550Z,22.06
2017-12-25T09:36:47.553Z,22.00
2017-12-25T09:37:47.564Z,22.05
2017-12-25T09:38:47.558Z,22.06
2017-12-25T09:39:47.560Z,22.10
2017-12-25T09:40:47.563Z,22.17
2017-12-25T09:41:47.588Z,22.07
2017-12-25T09:42:47.567Z,22.05
2017-12-25T09:43:47.571Z,22.06
2017-12-25T09:44:47.577Z,22.12
2017-12-25T09:45:47.575Z,22.07
2017-12-25T09:46:47.578Z,22.09
2017-12-25T09:47:47.580Z,22.10
2017-12-25T09:48:47.581Z,22.07
2017-12-25T09:49:47.585Z,22.03
2017-12-25T09:50:47.588Z,22.06
2017-12-25T09:51:47.590Z,22.07
2017-12-25T09:52:47.591Z,22.14
2017-12-25T09:53:47.594Z,22.10
2017-12-25T09:54:47.597Z,22.00
2017-12-25T09:55:47.600Z,22.06
2017-12-25T09:56:47.603Z,22.00
2017-12-25T09:57:47.604Z,22.14
2017-12-25T09:58:47.606Z,22.14
2017-12-25T09:59:47.607Z,22.02
2017-12-25T10:00:47.612Z,22.03
2017-12-25T10:01:47.614Z,22.09
2017-12-25T10:02:47.620Z,22.03
2017-12-25T10:03:47.618Z,22.06
2017-12-25T10:04:47.619Z,22.15
2017-12-25T10:05:47.622Z,22.12
2017-12-25T10:06:47.624Z,22.18
2017-12-25T10:07:47.626Z,22.06
2017-12-25T10:08:47.628Z,21.99
2017-12-25T10:09:47.633Z,22.07
2017-12-25T10:10:47.633Z,22.05
2017-12-25T10:11:47.635Z,22.12
2017-12-25T10:12:47.637Z,22.09
2017-12-25T10:13:47.641Z,22.05
2017-12-25T10:14:47.640Z,22.17
2017-12-25T10:15:47.644Z,22.09
2017-12-25T10:16:47.646Z,22.06
2017-12-25T10:17:47.649Z,22.07
2017-12-25T10:18:47.652Z,22.03
2017-12-25T10:19:47.653Z,22.07
2017-12-25T10:20:47.674Z,21.99
2017-12-25T10:21:47.657Z,22.06
2017-12-25T10:22:47.661Z,22.12
2017-12-25T10:23:47.664Z,22.05
2017-12-25T10:24:47.669Z,22.06
2017-12-25T10:25:47.668Z,22.17
2017-12-25T10:26:47.670Z,22.10
2017-12-25T10:27:47.672Z,22.06
2017-12-25T10:28:47.674Z,22.14
2017-12-25T10:29:47.677Z,22.06
2017-12-25T10:30:47.680Z,22.07
2017-12-25T10:31:47.681Z,22.12
2017-12-25T10:32:47.685Z,22.03
2017-12-25T10:33:47.686Z,22.05
2017-12-25T10:34:47.689Z,22.05
2017-12-25T10:35:47.690Z,22.03
2017-12-25T10:36:47.693Z,22.17
2017-12-25T10:37:47.695Z,22.09
2017-12-25T10:38:47.699Z,22.09
2017-12-25T10:39:47.699Z,22.07
2017-12-25T10:40:47.706Z,22.05
2017-12-25T10:41:47.704Z,22.12
2017-12-25T10:42:47.708Z,22.20
2017-12-25T10:43:47.710Z,22.21
2017-12-25T10:44:47.712Z,22.17
2017-12-25T10:45:47.716Z,22.12
2017-12-25T10:46:47.718Z,22.15
2017-12-25T10:47:47.721Z,22.15
2017-12-25T10:48:47.722Z,22.12
2017-12-25T10:49:47.724Z,22.10
2017-12-25T10:50:47.728Z,22.10
2017-12-25T10:51:47.727Z,22.17
2017-12-25T10:52:47.732Z,22.18
2017-12-25T10:53:47.733Z,22.17
2017-12-25T10:54:47.742Z,22.18
2017-12-25T10:55:47.740Z,22.20
2017-12-25T10:56:47.741Z,22.15
2017-12-25T10:57:47.744Z,22.12
2017-12-25T10:58:47.747Z,22.15
2017-12-25T10:59:47.749Z,22.15
2017-12-25T11:00:47.752Z,22.10
2017-12-25T11:01:47.761Z,22.10
2017-12-25T11:02:47.757Z,22.21
2017-12-25T11:03:47.758Z,22.18
2017-12-25T11:04:47.768Z,22.10
2017-12-25T11:05:47.765Z,22.15
2017-12-25T11:06:47.768Z,22.12
2017-12-25T11:07:47.768Z,22.18
2017-12-25T11:08:47.771Z,22.20
2017-12-25T11:09:47.773Z,22.12
2017-12-25T11:10:47.778Z,22.12
2017-12-25T11:11:47.779Z,22.18
2017-12-25T11:12:47.781Z,22.14
2017-12-25T11:13:47.784Z,22.06
2017-12-25T11:14:47.787Z,22.09
2017-12-25T11:15:47.789Z,22.09
2017-12-25T11:16:47.791Z,22.06
2017-12-25T11:17:47.794Z,22.03
2017-12-25T11:18:47.797Z,22.14
2017-12-25T11:19:47.798Z,22.14
2017-12-25T11:20:47.802Z,22.09
2017-12-25T11:21:47.804Z,22.15
2017-12-25T11:22:47.808Z,22.15
2017-12-25T11:23:47.809Z,22.10
2017-12-25T11:24:47.811Z,22.14
2017-12-25T11:25:47.813Z,22.03
2017-12-25T11:26:47.817Z,22.15
2017-12-25T11:27:47.818Z,22.15
2017-12-25T11:28:47.820Z,22.10
2017-12-25T11:29:47.823Z,22.07
2017-12-25T11:30:47.827Z,22.07
2017-12-25T11:31:47.827Z,22.03
2017-12-25T11:32:47.831Z,22.14
2017-12-25T11:33:47.833Z,22.14
2017-12-25T11:34:47.835Z,22.17
2017-12-25T11:35:47.839Z,22.09
2017-12-25T11:36:47.840Z,22.18
2017-12-25T11:37:47.843Z,22.12
2017-12-25T11:38:47.846Z,22.17
2017-12-25T11:39:47.845Z,22.14
2017-12-25T11:40:47.851Z,22.12
2017-12-25T11:41:47.850Z,22.12
2017-12-25T11:42:47.855Z,22.18
2017-12-25T11:43:47.857Z,22.10
2017-12-25T11:44:47.860Z,22.14
2017-12-25T11:45:47.862Z,22.09
2017-12-25T11:46:47.866Z,22.15
2017-12-25T11:47:47.868Z,22.17
2017-12-25T11:48:47.870Z,22.12
2017-12-25T11:49:47.876Z,22.10
2017-12-25T11:50:47.876Z,22.15
2017-12-25T11:51:47.877Z,22.20
2017-12-25T11:52:47.879Z,22.20
2017-12-25T11:53:47.883Z,22.14
2017-12-25T11:54:47.885Z,22.15
2017-12-25T11:55:47.888Z,22.15
2017-12-25T11:56:47.893Z,22.17
2017-12-25T11:57:47.892Z,22.17
2017-12-25T11:58:47.900Z,22.02
2017-12-25T11:59:47.897Z,22.10
2017-12-25T12:00:47.900Z,22.09
2017-12-25T12:01:47.903Z,22.07
2017-12-25T12:02:47.907Z,22.18
2017-12-25T12:03:47.928Z,22.18
2017-12-25T12:04:47.911Z,22.21
2017-12-25T12:05:47.913Z,22.12
2017-12-25T12:06:47.918Z,22.17
2017-12-25T12:07:47.916Z,22.09
2017-12-25T12:08:47.919Z,22.14
2017-12-25T12:09:47.922Z,22.10
2017-12-25T12:10:47.926Z,22.17
2017-12-25T12:11:47.927Z,22.14
2017-12-25T12:12:47.929Z,22.14
2017-12-25T12:13:47.934Z,22.12
2017-12-25T12:14:47.936Z,22.14
2017-12-25T12:15:47.937Z,22.22
2017-12-25T12:16:47.939Z,22.15
2017-12-25T12:17:47.945Z,22.07
2017-12-25T12:18:47.945Z,22.17
2017-12-25T12:19:47.948Z,22.14
2017-12-25T12:20:47.950Z,22.15
2017-12-25T12:21:47.953Z,22.15
2017-12-25T12:22:47.955Z,22.12
2017-12-25T12:23:47.965Z,22.20
2017-12-25T12:24:47.969Z,22.09
2017-12-25T12:25:47.961Z,22.15
2017-12-25T12:26:47.969Z,22.20
2017-12-25T12:27:47.967Z,22.14
2017-12-25T12:28:47.970Z,22.09
2017-12-25T12:29:47.978Z,22.17
2017-12-25T12:30:47.974Z,22.20
2017-12-25T12:31:47.977Z,22.22
2017-12-25T12:32:47.981Z,22.21
2017-12-25T12:33:47.983Z,22.18
2017-12-25T12:34:47.986Z,22.25
2017-12-25T12:35:47.987Z,22.15
2017-12-25T12:36:47.990Z,22.15
2017-12-25T12:37:47.992Z,22.14
2017-12-25T12:38:47.995Z,22.22
2017-12-25T12:39:47.996Z,22.21
2017-12-25T12:40:48.000Z,22.12
2017-12-25T12:41:48.002Z,22.10
2017-12-25T12:42:48.006Z,22.10
2017-12-25T12:43:48.007Z,22.12
2017-12-25T12:44:48.011Z,22.07
2017-12-25T12:45:48.013Z,22.09
2017-12-25T12:46:48.016Z,22.14
2017-12-25T12:47:48.018Z,22.10
2017-12-25T12:48:48.020Z,22.12
2017-12-25T12:49:48.024Z,22.09
2017-12-25T12:50:48.026Z,22.14
2017-12-25T12:51:48.060Z,22.15
2017-12-25T12:52:48.031Z,22.12